sensor_id;sensor_type;location;lat;lon;timestamp;temperature;humidity
15384;DHT22;7790;53.022;12.968;2023-04-16T00:00:37;20.00;46.70
15384;DHT22;7790;53.022;12.968;2023-04-16T00:04:38;20.00;46.70
15384;DHT22;7790;53.022;12.968;2023-04-16T00:08:39;20.00;46.70
15384;DHT22;7790;53.022;12.968;2023-04-16T00:12:40;20.00;46.70
15384;DHT22;7790;53.022;12.968;2023-04-16T00:16:42;19.90;46.60
15384;DHT22;7790;53.022;12.968;2023-04-16T00:20:42;19.90;46.60
15384;DHT22;7790;53.022;12.968;2023-04-16T00:24:43;19.90;46.60
15384;DHT22;7790;53.022;12.968;2023-04-16T00:28:45;19.80;46.60
15384;DHT22;7790;53.022;12.968;2023-04-16T00:32:46;19.80;46.60
15384;DHT22;7790;53.022;12.968;2023-04-16T00:36:47;19.80;46.60
15384;DHT22;7790;53.022;12.968;2023-04-16T00:40:48;19.70;46.60
15384;DHT22;7790;53.022;12.968;2023-04-16T00:44:49;19.80;46.60
15384;DHT22;7790;53.022;12.968;2023-04-16T00:48:50;19.70;46.60
15384;DHT22;7790;53.022;12.968;2023-04-16T00:52:52;19.70;46.60
15384;DHT22;7790;53.022;12.968;2023-04-16T00:56:53;19.70;46.60
15384;DHT22;7790;53.022;12.968;2023-04-16T01:00:54;19.70;46.60
15384;DHT22;7790;53.022;12.968;2023-04-16T01:04:56;19.70;46.60
15384;DHT22;7790;53.022;12.968;2023-04-16T01:08:57;19.60;46.60
15384;DHT22;7790;53.022;12.968;2023-04-16T01:12:57;19.60;46.50
15384;DHT22;7790;53.022;12.968;2023-04-16T01:16:58;19.60;46.60
15384;DHT22;7790;53.022;12.968;2023-04-16T01:20:59;19.60;46.60
15384;DHT22;7790;53.022;12.968;2023-04-16T01:25:00;19.60;46.60
15384;DHT22;7790;53.022;12.968;2023-04-16T01:29:01;19.50;46.50
15384;DHT22;7790;53.022;12.968;2023-04-16T01:33:02;19.50;46.50
15384;DHT22;7790;53.022;12.968;2023-04-16T01:37:04;19.50;46.50
15384;DHT22;7790;53.022;12.968;2023-04-16T01:41:05;19.50;46.50
15384;DHT22;7790;53.022;12.968;2023-04-16T01:45:06;19.50;46.40
15384;DHT22;7790;53.022;12.968;2023-04-16T01:49:07;19.50;46.60
15384;DHT22;7790;53.022;12.968;2023-04-16T01:53:08;19.40;46.50
15384;DHT22;7790;53.022;12.968;2023-04-16T01:57:09;19.40;46.50
15384;DHT22;7790;53.022;12.968;2023-04-16T02:01:11;19.40;46.60
15384;DHT22;7790;53.022;12.968;2023-04-16T02:05:12;19.40;46.60
15384;DHT22;7790;53.022;12.968;2023-04-16T02:09:13;19.30;46.60
15384;DHT22;7790;53.022;12.968;2023-04-16T02:13:15;19.30;46.50
15384;DHT22;7790;53.022;12.968;2023-04-16T02:17:17;19.30;46.70
15384;DHT22;7790;53.022;12.968;2023-04-16T02:21:20;19.30;46.60
15384;DHT22;7790;53.022;12.968;2023-04-16T02:25:22;19.30;46.60
15384;DHT22;7790;53.022;12.968;2023-04-16T02:29:25;19.30;46.70
15384;DHT22;7790;53.022;12.968;2023-04-16T02:33:32;19.20;46.60
15384;DHT22;7790;53.022;12.968;2023-04-16T02:37:36;19.20;46.60
15384;DHT22;7790;53.022;12.968;2023-04-16T02:41:40;19.20;46.60
15384;DHT22;7790;53.022;12.968;2023-04-16T02:45:41;19.20;46.60
15384;DHT22;7790;53.022;12.968;2023-04-16T02:49:42;19.20;46.60
15384;DHT22;7790;53.022;12.968;2023-04-16T02:53:43;19.20;46.60
15384;DHT22;7790;53.022;12.968;2023-04-16T02:57:46;19.10;46.60
15384;DHT22;7790;53.022;12.968;2023-04-16T03:01:47;19.10;46.60
15384;DHT22;7790;53.022;12.968;2023-04-16T03:05:47;19.10;46.60
15384;DHT22;7790;53.022;12.968;2023-04-16T03:09:52;19.10;46.70
15384;DHT22;7790;53.022;12.968;2023-04-16T03:13:53;19.10;46.60
15384;DHT22;7790;53.022;12.968;2023-04-16T03:17:54;19.10;46.60
15384;DHT22;7790;53.022;12.968;2023-04-16T03:21:55;19.10;46.70
15384;DHT22;7790;53.022;12.968;2023-04-16T03:25:56;19.00;46.60
15384;DHT22;7790;53.022;12.968;2023-04-16T03:29:56;19.00;46.60
15384;DHT22;7790;53.022;12.968;2023-04-16T03:33:58;19.00;46.60
15384;DHT22;7790;53.022;12.968;2023-04-16T03:37:59;19.00;46.60
15384;DHT22;7790;53.022;12.968;2023-04-16T03:42:00;19.00;46.70
15384;DHT22;7790;53.022;12.968;2023-04-16T03:46:02;19.00;46.70
15384;DHT22;7790;53.022;12.968;2023-04-16T03:50:03;19.00;46.60
15384;DHT22;7790;53.022;12.968;2023-04-16T03:54:04;19.00;46.70
15384;DHT22;7790;53.022;12.968;2023-04-16T03:58:06;18.90;46.70
15384;DHT22;7790;53.022;12.968;2023-04-16T04:02:07;18.90;46.70
15384;DHT22;7790;53.022;12.968;2023-04-16T04:06:08;18.90;46.70
15384;DHT22;7790;53.022;12.968;2023-04-16T04:10:09;18.90;46.70
15384;DHT22;7790;53.022;12.968;2023-04-16T04:14:13;18.90;46.70
15384;DHT22;7790;53.022;12.968;2023-04-16T04:18:15;18.90;46.70
15384;DHT22;7790;53.022;12.968;2023-04-16T04:22:17;18.90;46.80
15384;DHT22;7790;53.022;12.968;2023-04-16T04:26:18;18.80;46.70
15384;DHT22;7790;53.022;12.968;2023-04-16T04:30:19;18.80;46.70
15384;DHT22;7790;53.022;12.968;2023-04-16T04:34:20;18.80;46.70
15384;DHT22;7790;53.022;12.968;2023-04-16T04:38:21;18.80;46.70
15384;DHT22;7790;53.022;12.968;2023-04-16T04:42:25;18.80;46.80
15384;DHT22;7790;53.022;12.968;2023-04-16T04:46:28;18.80;46.80
15384;DHT22;7790;53.022;12.968;2023-04-16T04:50:29;18.80;46.70
15384;DHT22;7790;53.022;12.968;2023-04-16T04:54:32;18.80;46.80
15384;DHT22;7790;53.022;12.968;2023-04-16T04:58:33;18.80;46.80
15384;DHT22;7790;53.022;12.968;2023-04-16T05:02:36;18.80;46.80
15384;DHT22;7790;53.022;12.968;2023-04-16T05:06:36;19.00;46.70
15384;DHT22;7790;53.022;12.968;2023-04-16T05:10:37;19.20;46.80
15384;DHT22;7790;53.022;12.968;2023-04-16T05:14:38;19.40;46.50
15384;DHT22;7790;53.022;12.968;2023-04-16T05:18:39;19.70;46.50
15384;DHT22;7790;53.022;12.968;2023-04-16T05:22:40;19.80;46.00
15384;DHT22;7790;53.022;12.968;2023-04-16T05:26:41;19.90;45.80
15384;DHT22;7790;53.022;12.968;2023-04-16T05:30:42;20.00;45.60
15384;DHT22;7790;53.022;12.968;2023-04-16T05:34:42;20.10;45.50
15384;DHT22;7790;53.022;12.968;2023-04-16T05:38:43;20.20;45.50
15384;DHT22;7790;53.022;12.968;2023-04-16T05:42:44;20.30;45.50
15384;DHT22;7790;53.022;12.968;2023-04-16T05:46:45;20.30;45.40
15384;DHT22;7790;53.022;12.968;2023-04-16T05:50:46;20.30;45.40
15384;DHT22;7790;53.022;12.968;2023-04-16T05:54:46;20.30;45.30
15384;DHT22;7790;53.022;12.968;2023-04-16T05:58:47;20.40;45.40
15384;DHT22;7790;53.022;12.968;2023-04-16T06:02:48;20.40;45.30
15384;DHT22;7790;53.022;12.968;2023-04-16T06:06:50;20.50;45.40
15384;DHT22;7790;53.022;12.968;2023-04-16T06:10:51;20.50;45.40
15384;DHT22;7790;53.022;12.968;2023-04-16T06:14:52;20.60;45.40
15384;DHT22;7790;53.022;12.968;2023-04-16T06:18:53;20.60;45.30
15384;DHT22;7790;53.022;12.968;2023-04-16T06:22:54;20.60;45.30
15384;DHT22;7790;53.022;12.968;2023-04-16T06:26:56;20.70;45.20
15384;DHT22;7790;53.022;12.968;2023-04-16T06:30:58;20.50;46.20
15384;DHT22;7790;53.022;12.968;2023-04-16T06:35:00;20.00;46.30
15384;DHT22;7790;53.022;12.968;2023-04-16T06:39:00;19.90;46.70
15384;DHT22;7790;53.022;12.968;2023-04-16T06:43:01;20.20;46.70
15384;DHT22;7790;53.022;12.968;2023-04-16T06:47:02;20.40;46.90
15384;DHT22;7790;53.022;12.968;2023-04-16T06:51:03;20.50;46.60
15384;DHT22;7790;53.022;12.968;2023-04-16T06:55:04;20.60;46.30
15384;DHT22;7790;53.022;12.968;2023-04-16T06:59:07;20.60;46.20
15384;DHT22;7790;53.022;12.968;2023-04-16T07:03:08;20.70;46.10
15384;DHT22;7790;53.022;12.968;2023-04-16T07:07:09;20.70;46.10
15384;DHT22;7790;53.022;12.968;2023-04-16T07:11:10;20.70;46.00
15384;DHT22;7790;53.022;12.968;2023-04-16T07:15:11;20.70;45.90
15384;DHT22;7790;53.022;12.968;2023-04-16T07:19:12;20.80;45.80
15384;DHT22;7790;53.022;12.968;2023-04-16T07:23:13;20.80;45.80
15384;DHT22;7790;53.022;12.968;2023-04-16T07:27:14;20.80;45.70
15384;DHT22;7790;53.022;12.968;2023-04-16T07:31:14;20.80;45.70
15384;DHT22;7790;53.022;12.968;2023-04-16T07:35:15;20.80;45.70
15384;DHT22;7790;53.022;12.968;2023-04-16T07:39:16;20.90;45.70
15384;DHT22;7790;53.022;12.968;2023-04-16T07:43:17;20.90;45.60
15384;DHT22;7790;53.022;12.968;2023-04-16T07:47:19;20.90;45.70
15384;DHT22;7790;53.022;12.968;2023-04-16T07:51:22;20.90;45.70
15384;DHT22;7790;53.022;12.968;2023-04-16T07:55:23;20.90;45.70
15384;DHT22;7790;53.022;12.968;2023-04-16T07:59:25;21.00;45.70
15384;DHT22;7790;53.022;12.968;2023-04-16T08:03:26;21.00;45.70
15384;DHT22;7790;53.022;12.968;2023-04-16T08:07:27;21.00;45.50
15384;DHT22;7790;53.022;12.968;2023-04-16T08:11:28;21.00;45.60
15384;DHT22;7790;53.022;12.968;2023-04-16T08:15:29;21.00;45.60
15384;DHT22;7790;53.022;12.968;2023-04-16T08:19:30;21.00;45.70
15384;DHT22;7790;53.022;12.968;2023-04-16T08:23:31;20.90;45.60
15384;DHT22;7790;53.022;12.968;2023-04-16T08:27:32;20.90;45.70
15384;DHT22;7790;53.022;12.968;2023-04-16T08:31:33;20.90;45.70
15384;DHT22;7790;53.022;12.968;2023-04-16T08:35:34;20.80;45.70
15384;DHT22;7790;53.022;12.968;2023-04-16T08:39:35;20.80;45.80
15384;DHT22;7790;53.022;12.968;2023-04-16T08:43:37;20.70;45.70
15384;DHT22;7790;53.022;12.968;2023-04-16T08:47:39;20.70;45.90
15384;DHT22;7790;53.022;12.968;2023-04-16T08:51:42;20.60;45.80
15384;DHT22;7790;53.022;12.968;2023-04-16T08:55:47;20.60;45.90
15384;DHT22;7790;53.022;12.968;2023-04-16T08:59:49;20.70;45.90
15384;DHT22;7790;53.022;12.968;2023-04-16T09:03:51;20.80;45.90
15384;DHT22;7790;53.022;12.968;2023-04-16T09:07:52;20.90;46.30
15384;DHT22;7790;53.022;12.968;2023-04-16T09:11:55;21.00;45.70
15384;DHT22;7790;53.022;12.968;2023-04-16T09:15:56;21.10;46.00
15384;DHT22;7790;53.022;12.968;2023-04-16T09:19:57;21.10;46.50
15384;DHT22;7790;53.022;12.968;2023-04-16T09:23:58;21.20;47.40
15384;DHT22;7790;53.022;12.968;2023-04-16T09:28:00;21.30;47.10
15384;DHT22;7790;53.022;12.968;2023-04-16T09:32:03;21.30;46.50
15384;DHT22;7790;53.022;12.968;2023-04-16T09:36:05;21.30;47.20
15384;DHT22;7790;53.022;12.968;2023-04-16T09:40:10;21.40;47.20
15384;DHT22;7790;53.022;12.968;2023-04-16T09:44:11;21.40;47.20
15384;DHT22;7790;53.022;12.968;2023-04-16T09:48:12;21.40;47.20
15384;DHT22;7790;53.022;12.968;2023-04-16T09:52:14;21.40;47.20
15384;DHT22;7790;53.022;12.968;2023-04-16T09:56:15;21.30;47.20
15384;DHT22;7790;53.022;12.968;2023-04-16T10:00:19;21.30;46.80
15384;DHT22;7790;53.022;12.968;2023-04-16T10:04:20;21.20;47.10
15384;DHT22;7790;53.022;12.968;2023-04-16T10:08:22;21.20;47.20
15384;DHT22;7790;53.022;12.968;2023-04-16T10:12:23;21.20;47.10
15384;DHT22;7790;53.022;12.968;2023-04-16T10:16:26;21.10;47.10
15384;DHT22;7790;53.022;12.968;2023-04-16T10:20:27;21.00;47.40
15384;DHT22;7790;53.022;12.968;2023-04-16T10:24:32;21.00;47.40
15384;DHT22;7790;53.022;12.968;2023-04-16T10:28:34;21.10;47.20
15384;DHT22;7790;53.022;12.968;2023-04-16T10:32:35;21.10;47.10
15384;DHT22;7790;53.022;12.968;2023-04-16T10:36:38;21.20;47.00
15384;DHT22;7790;53.022;12.968;2023-04-16T10:40:43;21.20;47.00
15384;DHT22;7790;53.022;12.968;2023-04-16T10:44:45;21.30;47.00
15384;DHT22;7790;53.022;12.968;2023-04-16T10:48:46;21.40;46.80
15384;DHT22;7790;53.022;12.968;2023-04-16T10:53:18;21.40;46.90
15384;DHT22;7790;53.022;12.968;2023-04-16T10:57:22;21.40;46.90
15384;DHT22;7790;53.022;12.968;2023-04-16T11:01:33;21.40;46.90
15384;DHT22;7790;53.022;12.968;2023-04-16T11:10:14;21.20;47.00
15384;DHT22;7790;53.022;12.968;2023-04-16T11:14:18;21.20;47.00
15384;DHT22;7790;53.022;12.968;2023-04-16T11:18:19;21.10;47.00
15384;DHT22;7790;53.022;12.968;2023-04-16T11:22:20;21.00;47.00
15384;DHT22;7790;53.022;12.968;2023-04-16T11:26:27;21.00;47.10
15384;DHT22;7790;53.022;12.968;2023-04-16T11:30:34;20.90;47.30
15384;DHT22;7790;53.022;12.968;2023-04-16T11:34:46;20.90;47.30
15384;DHT22;7790;53.022;12.968;2023-04-16T11:38:47;21.00;47.10
15384;DHT22;7790;53.022;12.968;2023-04-16T11:42:47;21.10;46.90
15384;DHT22;7790;53.022;12.968;2023-04-16T11:46:49;21.20;46.80
15384;DHT22;7790;53.022;12.968;2023-04-16T11:50:57;21.30;47.00
15384;DHT22;7790;53.022;12.968;2023-04-16T11:54:58;21.30;47.00
15384;DHT22;7790;53.022;12.968;2023-04-16T11:59:12;21.40;47.10
15384;DHT22;7790;53.022;12.968;2023-04-16T12:03:13;21.40;47.10
15384;DHT22;7790;53.022;12.968;2023-04-16T12:07:14;21.50;47.10
15384;DHT22;7790;53.022;12.968;2023-04-16T12:11:15;21.40;47.80
15384;DHT22;7790;53.022;12.968;2023-04-16T12:15:16;21.30;47.80
15384;DHT22;7790;53.022;12.968;2023-04-16T12:19:17;21.30;47.70
15384;DHT22;7790;53.022;12.968;2023-04-16T12:23:29;21.20;47.70
15384;DHT22;7790;53.022;12.968;2023-04-16T12:31:51;21.10;47.50
15384;DHT22;7790;53.022;12.968;2023-04-16T12:35:53;21.10;47.60
15384;DHT22;7790;53.022;12.968;2023-04-16T12:39:54;21.00;47.60
15384;DHT22;7790;53.022;12.968;2023-04-16T12:44:10;20.90;47.80
15384;DHT22;7790;53.022;12.968;2023-04-16T12:48:11;21.00;47.80
15384;DHT22;7790;53.022;12.968;2023-04-16T12:52:12;21.10;47.50
15384;DHT22;7790;53.022;12.968;2023-04-16T12:56:14;21.10;47.50
15384;DHT22;7790;53.022;12.968;2023-04-16T13:00:15;21.20;47.50
15384;DHT22;7790;53.022;12.968;2023-04-16T13:04:16;21.30;47.60
15384;DHT22;7790;53.022;12.968;2023-04-16T13:08:20;21.30;47.60
15384;DHT22;7790;53.022;12.968;2023-04-16T13:12:21;21.40;47.50
15384;DHT22;7790;53.022;12.968;2023-04-16T13:16:21;21.40;47.50
15384;DHT22;7790;53.022;12.968;2023-04-16T13:20:22;21.40;47.30
15384;DHT22;7790;53.022;12.968;2023-04-16T13:24:23;21.30;47.40
15384;DHT22;7790;53.022;12.968;2023-04-16T13:28:25;21.20;47.30
15384;DHT22;7790;53.022;12.968;2023-04-16T13:32:26;21.20;47.30
15384;DHT22;7790;53.022;12.968;2023-04-16T13:36:27;21.30;47.50
15384;DHT22;7790;53.022;12.968;2023-04-16T13:40:29;21.20;47.60
15384;DHT22;7790;53.022;12.968;2023-04-16T13:44:30;21.10;47.00
15384;DHT22;7790;53.022;12.968;2023-04-16T13:48:31;21.10;47.40
15384;DHT22;7790;53.022;12.968;2023-04-16T13:52:32;21.10;47.50
15384;DHT22;7790;53.022;12.968;2023-04-16T13:56:33;21.20;47.70
15384;DHT22;7790;53.022;12.968;2023-04-16T14:00:34;21.20;47.30
15384;DHT22;7790;53.022;12.968;2023-04-16T14:04:35;21.30;47.20
15384;DHT22;7790;53.022;12.968;2023-04-16T14:08:36;21.50;47.00
15384;DHT22;7790;53.022;12.968;2023-04-16T14:12:37;21.60;46.70
15384;DHT22;7790;53.022;12.968;2023-04-16T14:16:38;21.60;46.60
15384;DHT22;7790;53.022;12.968;2023-04-16T14:20:39;21.80;46.40
15384;DHT22;7790;53.022;12.968;2023-04-16T14:24:40;21.70;43.90
15384;DHT22;7790;53.022;12.968;2023-04-16T14:28:41;20.40;43.00
15384;DHT22;7790;53.022;12.968;2023-04-16T14:32:42;19.40;43.20
15384;DHT22;7790;53.022;12.968;2023-04-16T14:36:43;19.00;44.40
15384;DHT22;7790;53.022;12.968;2023-04-16T14:40:44;18.70;43.70
15384;DHT22;7790;53.022;12.968;2023-04-16T14:44:45;18.40;43.50
15384;DHT22;7790;53.022;12.968;2023-04-16T14:48:46;18.30;44.20
15384;DHT22;7790;53.022;12.968;2023-04-16T14:52:47;18.20;44.20
15384;DHT22;7790;53.022;12.968;2023-04-16T14:56:48;18.30;44.40
15384;DHT22;7790;53.022;12.968;2023-04-16T15:00:49;18.70;43.70
15384;DHT22;7790;53.022;12.968;2023-04-16T15:04:50;19.10;44.10
15384;DHT22;7790;53.022;12.968;2023-04-16T15:08:51;19.40;44.80
15384;DHT22;7790;53.022;12.968;2023-04-16T15:12:52;19.50;44.80
15384;DHT22;7790;53.022;12.968;2023-04-16T15:16:53;19.70;44.70
15384;DHT22;7790;53.022;12.968;2023-04-16T15:20:54;19.70;44.70
15384;DHT22;7790;53.022;12.968;2023-04-16T15:24:55;19.70;44.80
15384;DHT22;7790;53.022;12.968;2023-04-16T15:28:56;19.70;44.90
15384;DHT22;7790;53.022;12.968;2023-04-16T15:32:57;19.60;45.30
15384;DHT22;7790;53.022;12.968;2023-04-16T15:36:58;19.60;45.30
15384;DHT22;7790;53.022;12.968;2023-04-16T15:40:59;19.50;45.40
15384;DHT22;7790;53.022;12.968;2023-04-16T15:45:00;19.50;45.50
15384;DHT22;7790;53.022;12.968;2023-04-16T15:49:01;19.50;45.50
15384;DHT22;7790;53.022;12.968;2023-04-16T15:53:02;19.50;45.70
15384;DHT22;7790;53.022;12.968;2023-04-16T15:57:03;19.50;45.60
15384;DHT22;7790;53.022;12.968;2023-04-16T16:01:04;19.50;45.60
15384;DHT22;7790;53.022;12.968;2023-04-16T16:05:05;19.60;45.70
15384;DHT22;7790;53.022;12.968;2023-04-16T16:09:07;19.70;45.90
15384;DHT22;7790;53.022;12.968;2023-04-16T16:13:08;19.80;45.90
15384;DHT22;7790;53.022;12.968;2023-04-16T16:17:15;19.80;46.10
15384;DHT22;7790;53.022;12.968;2023-04-16T16:21:16;19.90;46.00
15384;DHT22;7790;53.022;12.968;2023-04-16T16:25:17;20.10;45.90
15384;DHT22;7790;53.022;12.968;2023-04-16T16:29:18;20.20;45.90
15384;DHT22;7790;53.022;12.968;2023-04-16T16:33:19;20.30;45.70
15384;DHT22;7790;53.022;12.968;2023-04-16T16:37:22;20.60;45.60
15384;DHT22;7790;53.022;12.968;2023-04-16T16:41:26;20.80;45.60
15384;DHT22;7790;53.022;12.968;2023-04-16T16:45:26;20.80;45.40
15384;DHT22;7790;53.022;12.968;2023-04-16T16:49:28;20.80;45.50
15384;DHT22;7790;53.022;12.968;2023-04-16T16:53:29;20.90;45.60
15384;DHT22;7790;53.022;12.968;2023-04-16T16:57:30;20.80;45.70
15384;DHT22;7790;53.022;12.968;2023-04-16T17:01:31;20.80;45.80
15384;DHT22;7790;53.022;12.968;2023-04-16T17:05:32;20.90;45.80
15384;DHT22;7790;53.022;12.968;2023-04-16T17:09:33;20.90;45.80
15384;DHT22;7790;53.022;12.968;2023-04-16T17:13:34;20.90;45.80
15384;DHT22;7790;53.022;12.968;2023-04-16T17:17:35;20.90;46.10
15384;DHT22;7790;53.022;12.968;2023-04-16T17:21:36;20.90;46.40
15384;DHT22;7790;53.022;12.968;2023-04-16T17:25:36;20.80;46.70
15384;DHT22;7790;53.022;12.968;2023-04-16T17:29:37;20.70;46.90
15384;DHT22;7790;53.022;12.968;2023-04-16T17:33:38;20.70;47.20
15384;DHT22;7790;53.022;12.968;2023-04-16T17:37:39;20.70;47.30
15384;DHT22;7790;53.022;12.968;2023-04-16T17:41:40;20.60;47.50
15384;DHT22;7790;53.022;12.968;2023-04-16T17:45:41;20.60;48.10
15384;DHT22;7790;53.022;12.968;2023-04-16T17:49:43;20.50;47.70
15384;DHT22;7790;53.022;12.968;2023-04-16T17:53:43;20.60;48.00
15384;DHT22;7790;53.022;12.968;2023-04-16T17:57:44;20.40;48.00
15384;DHT22;7790;53.022;12.968;2023-04-16T18:01:45;20.40;48.80
15384;DHT22;7790;53.022;12.968;2023-04-16T18:05:47;20.40;49.20
15384;DHT22;7790;53.022;12.968;2023-04-16T18:09:48;20.40;49.30
15384;DHT22;7790;53.022;12.968;2023-04-16T18:13:49;20.30;49.30
15384;DHT22;7790;53.022;12.968;2023-04-16T18:17:52;20.30;49.30
15384;DHT22;7790;53.022;12.968;2023-04-16T18:21:54;20.20;49.30
15384;DHT22;7790;53.022;12.968;2023-04-16T18:25:55;20.20;49.20
15384;DHT22;7790;53.022;12.968;2023-04-16T18:29:56;20.20;49.30
15384;DHT22;7790;53.022;12.968;2023-04-16T18:33:57;20.10;49.30
15384;DHT22;7790;53.022;12.968;2023-04-16T18:37:58;20.30;49.00
15384;DHT22;7790;53.022;12.968;2023-04-16T18:41:59;20.50;48.70
15384;DHT22;7790;53.022;12.968;2023-04-16T18:46:01;20.60;48.40
15384;DHT22;7790;53.022;12.968;2023-04-16T18:50:02;20.70;47.90
15384;DHT22;7790;53.022;12.968;2023-04-16T18:54:03;20.80;48.60
15384;DHT22;7790;53.022;12.968;2023-04-16T18:58:04;20.80;48.40
15384;DHT22;7790;53.022;12.968;2023-04-16T19:02:05;20.90;48.70
15384;DHT22;7790;53.022;12.968;2023-04-16T19:06:06;20.90;48.90
15384;DHT22;7790;53.022;12.968;2023-04-16T19:10:08;20.80;48.90
15384;DHT22;7790;53.022;12.968;2023-04-16T19:14:08;20.80;49.00
15384;DHT22;7790;53.022;12.968;2023-04-16T19:18:09;20.80;49.00
15384;DHT22;7790;53.022;12.968;2023-04-16T19:22:10;20.80;49.10
15384;DHT22;7790;53.022;12.968;2023-04-16T19:26:11;20.70;49.20
15384;DHT22;7790;53.022;12.968;2023-04-16T19:30:12;20.60;49.20
15384;DHT22;7790;53.022;12.968;2023-04-16T19:34:13;20.60;49.20
15384;DHT22;7790;53.022;12.968;2023-04-16T19:38:15;20.50;49.30
15384;DHT22;7790;53.022;12.968;2023-04-16T19:42:15;20.50;49.40
15384;DHT22;7790;53.022;12.968;2023-04-16T19:46:16;20.50;49.10
15384;DHT22;7790;53.022;12.968;2023-04-16T19:50:17;20.60;49.20
15384;DHT22;7790;53.022;12.968;2023-04-16T19:54:18;20.60;49.10
15384;DHT22;7790;53.022;12.968;2023-04-16T19:58:19;20.50;49.20
15384;DHT22;7790;53.022;12.968;2023-04-16T20:02:20;20.50;49.30
15384;DHT22;7790;53.022;12.968;2023-04-16T20:06:21;20.50;49.30
15384;DHT22;7790;53.022;12.968;2023-04-16T20:10:22;20.50;49.30
15384;DHT22;7790;53.022;12.968;2023-04-16T20:14:23;20.50;49.30
15384;DHT22;7790;53.022;12.968;2023-04-16T20:18:24;20.50;48.80
15384;DHT22;7790;53.022;12.968;2023-04-16T20:22:26;20.50;48.80
15384;DHT22;7790;53.022;12.968;2023-04-16T20:26:29;20.60;48.50
15384;DHT22;7790;53.022;12.968;2023-04-16T20:30:33;20.50;48.70
15384;DHT22;7790;53.022;12.968;2023-04-16T20:34:38;20.40;48.80
15384;DHT22;7790;53.022;12.968;2023-04-16T20:38:39;20.40;49.00
15384;DHT22;7790;53.022;12.968;2023-04-16T20:42:41;20.30;49.10
15384;DHT22;7790;53.022;12.968;2023-04-16T20:46:45;20.30;49.30
15384;DHT22;7790;53.022;12.968;2023-04-16T20:50:49;20.30;49.40
15384;DHT22;7790;53.022;12.968;2023-04-16T20:54:49;20.20;49.30
15384;DHT22;7790;53.022;12.968;2023-04-16T20:58:51;20.20;49.30
15384;DHT22;7790;53.022;12.968;2023-04-16T21:02:53;20.20;49.30
15384;DHT22;7790;53.022;12.968;2023-04-16T21:06:54;20.20;49.20
15384;DHT22;7790;53.022;12.968;2023-04-16T21:10:55;20.10;49.10
15384;DHT22;7790;53.022;12.968;2023-04-16T21:14:56;20.10;49.10
15384;DHT22;7790;53.022;12.968;2023-04-16T21:18:57;20.10;49.10
15384;DHT22;7790;53.022;12.968;2023-04-16T21:22:58;20.00;49.10
15384;DHT22;7790;53.022;12.968;2023-04-16T21:26:59;20.00;49.10
15384;DHT22;7790;53.022;12.968;2023-04-16T21:31:01;20.00;49.10
15384;DHT22;7790;53.022;12.968;2023-04-16T21:35:02;20.00;48.90
15384;DHT22;7790;53.022;12.968;2023-04-16T21:39:03;20.00;49.10
15384;DHT22;7790;53.022;12.968;2023-04-16T21:43:04;19.90;48.90
15384;DHT22;7790;53.022;12.968;2023-04-16T21:47:04;19.90;48.90
15384;DHT22;7790;53.022;12.968;2023-04-16T21:51:05;19.90;48.90
15384;DHT22;7790;53.022;12.968;2023-04-16T21:55:08;19.80;48.80
15384;DHT22;7790;53.022;12.968;2023-04-16T21:59:09;19.80;48.80
15384;DHT22;7790;53.022;12.968;2023-04-16T22:03:10;19.70;48.60
15384;DHT22;7790;53.022;12.968;2023-04-16T22:07:13;19.70;48.70
15384;DHT22;7790;53.022;12.968;2023-04-16T22:11:16;19.70;48.80
15384;DHT22;7790;53.022;12.968;2023-04-16T22:15:17;19.70;48.60
15384;DHT22;7790;53.022;12.968;2023-04-16T22:19:18;19.70;48.60
15384;DHT22;7790;53.022;12.968;2023-04-16T22:23:22;19.60;48.60
15384;DHT22;7790;53.022;12.968;2023-04-16T22:27:23;19.60;48.50
15384;DHT22;7790;53.022;12.968;2023-04-16T22:31:23;19.60;48.40
15384;DHT22;7790;53.022;12.968;2023-04-16T22:35:24;19.60;48.50
15384;DHT22;7790;53.022;12.968;2023-04-16T22:39:25;19.50;48.40
15384;DHT22;7790;53.022;12.968;2023-04-16T22:43:28;19.50;48.40
15384;DHT22;7790;53.022;12.968;2023-04-16T22:47:28;19.50;48.30
15384;DHT22;7790;53.022;12.968;2023-04-16T22:51:29;19.50;48.30
15384;DHT22;7790;53.022;12.968;2023-04-16T22:55:30;19.50;48.40
15384;DHT22;7790;53.022;12.968;2023-04-16T22:59:31;19.40;48.30
15384;DHT22;7790;53.022;12.968;2023-04-16T23:03:32;19.40;48.30
15384;DHT22;7790;53.022;12.968;2023-04-16T23:07:32;19.40;48.30
15384;DHT22;7790;53.022;12.968;2023-04-16T23:11:33;19.40;48.40
15384;DHT22;7790;53.022;12.968;2023-04-16T23:15:34;19.30;48.30
15384;DHT22;7790;53.022;12.968;2023-04-16T23:19:35;19.30;48.30
15384;DHT22;7790;53.022;12.968;2023-04-16T23:23:36;19.30;48.30
15384;DHT22;7790;53.022;12.968;2023-04-16T23:27:37;19.30;48.30
15384;DHT22;7790;53.022;12.968;2023-04-16T23:31:38;19.30;48.30
15384;DHT22;7790;53.022;12.968;2023-04-16T23:35:39;19.30;48.30
15384;DHT22;7790;53.022;12.968;2023-04-16T23:39:39;19.20;48.30
15384;DHT22;7790;53.022;12.968;2023-04-16T23:43:41;19.20;48.20
15384;DHT22;7790;53.022;12.968;2023-04-16T23:47:42;19.20;48.40
15384;DHT22;7790;53.022;12.968;2023-04-16T23:51:42;19.20;48.40
15384;DHT22;7790;53.022;12.968;2023-04-16T23:55:43;19.10;48.40
15384;DHT22;7790;53.022;12.968;2023-04-16T23:59:44;19.10;48.40
